Terminal Aerodrome Forecast
Issued by NWS

Home | Current Version | Previous Version | Text Only | Print | Product List | Glossary On
Versions: 1 2 3 4 5 6 7 8 9 10 11 12 13
000
FTUS45 KREV 260500
TAFMMH
TAF
KMMH 260520Z 2606/2706 VRB03KT P6SM SKC
     FM262000 13008KT P6SM SCT140 BKN180
     FM270200 VRB04KT P6SM VCSH BKN070 OVC120
      AMD NOT SKED 2606/2614=

USA.gov is the U.S. government's official web portal to all federal, state and local government web resources and services.